Red Cross, Pennsylvania
Current Conditions -  °F | °C
As of 10:53 AM on Friday 28 Nov 2014 (Local Time) from KSEG Reporting Station
Overcast Overcast  
Wind Chill: -5°   Ceiling: 5000
Heat Index:   Visibility: 10mi
Dew Point: -9°   Wind: 12mph
Humidity: 50%   Direction: 290°WNW
Pressure: 30.26"   Gusts: 18mph
Location:  40.7561°N, 76.7639°W
Report Text: KSEG 281553Z AUTO 29010G16KT 10SM OVC050 00/M09 A3026 RMK AO2 SLP251 T00001094
Loading
Personal Weather Stations






























Interactive Weather Map New forecast layout! Learn more

10-Day Weather Forecast

Advertisements
Track Severe Weather on mobile